CheckWX is a tool to help pilots better visualize weather data.  It is not intended as a substitute for an official pre-flight weather briefing.

17:16:08 UTC

EGUW TAF
RAF Wattisham Airport
Stowmarket, United Kingdom
TAF EGUW 181333Z 1815/1824 23003KT 9999 FEW040 TEMPO 1815/1817 7000 RA PROB40 TEMPO 1815/1817 4000 +RA

Jun-18@
15:00 UTC

Jun-18 @ 15:00 UTC

Jun-19@
00:00 UTC

Jun-19 @ 00:00 UTC

TAF EGUW 181333Z 1815/1824 23003KT 9999 FEW040
Wind
  • 230° at 3 KTS
Cloud Levels
  • Few at 4,000' AGL

Jun-18@
15:00 UTC

Jun-18 @ 15:00 UTC

Jun-18@
17:00 UTC

Jun-18 @ 17:00 UTC

PROB40 TEMPO 1815/1817 4000 +RA

Expired

Conditions
Heavy Rain

Jun-18@
15:00 UTC

Jun-18 @ 15:00 UTC

Jun-18@
17:00 UTC

Jun-18 @ 17:00 UTC

TEMPO 1815/1817 7000 RA

Expired

Conditions
Rain